Time;durP1;ratioP1;P1;durP2;ratioP2;P2;SDS_P1;SDS_P2;PMS_P1;PMS_P2;Temp;Humidity;BMP_temperature;BMP_pressure;BME280_temperature;BME280_humidity;BME280_pressure;Samples;Min_cycle;Max_cycle;Signal;HPM_P1;HPM_P2
2022/03/10 00:01:47;;;;;;;17.10;12.20;;;2.00;74.20;;;;;;5047427;28;20091;-49
2022/03/10 00:04:13;;;;;;;16.07;11.50;;;1.90;74.70;;;;;;5033322;28;20044;-53
2022/03/10 00:06:38;;;;;;;17.87;13.33;;;1.90;74.70;;;;;;5057503;28;20037;-51
2022/03/10 00:09:04;;;;;;;20.77;12.17;;;1.90;74.70;;;;;;5033085;28;20483;-52
2022/03/10 00:11:30;;;;;;;20.17;11.97;;;2.00;74.70;;;;;;5035893;28;20033;-53
2022/03/10 00:13:55;;;;;;;19.27;12.50;;;2.00;74.60;;;;;;5052623;28;20511;-52
2022/03/10 00:16:21;;;;;;;18.87;12.27;;;2.10;74.70;;;;;;5051404;28;20478;-54
2022/03/10 00:18:47;;;;;;;24.60;13.13;;;2.20;74.50;;;;;;5038580;28;20090;-49
2022/03/10 00:21:13;;;;;;;19.55;12.07;;;2.20;74.20;;;;;;5051219;28;20044;-48
2022/03/10 00:23:39;;;;;;;22.92;14.27;;;2.30;74.50;;;;;;5036005;28;20080;-51
2022/03/10 00:26:05;;;;;;;16.37;12.50;;;2.30;74.60;;;;;;5034988;28;20526;-53
2022/03/10 00:28:31;;;;;;;19.92;13.23;;;2.20;75.20;;;;;;5032690;28;20148;-54
2022/03/10 00:30:56;;;;;;;19.67;12.32;;;2.10;75.20;;;;;;5033797;28;20068;-50
2022/03/10 00:33:22;;;;;;;19.90;13.40;;;2.20;75.60;;;;;;5050682;28;20391;-50
2022/03/10 00:35:48;;;;;;;21.13;13.10;;;2.10;75.60;;;;;;5042081;28;20037;-53
2022/03/10 00:38:14;;;;;;;16.87;12.10;;;2.20;75.00;;;;;;5050449;28;20490;-54
2022/03/10 00:40:39;;;;;;;21.98;13.60;;;2.30;75.00;;;;;;5052558;28;20083;-53
2022/03/10 00:43:12;;;;;;;22.38;13.40;;;2.30;74.80;;;;;;5036305;28;20127;-49
2022/03/10 00:45:39;;;;;;;26.23;13.73;;;2.40;74.50;;;;;;5032580;28;20406;-52
2022/03/10 00:48:04;;;;;;;20.98;13.25;;;2.50;74.20;;;;;;5032650;28;20034;-53
2022/03/10 00:50:30;;;;;;;17.35;12.52;;;2.50;73.90;;;;;;5051891;28;20033;-53
2022/03/10 00:52:56;;;;;;;21.57;12.30;;;2.60;73.80;;;;;;5045246;28;20067;-52
2022/03/10 00:55:22;;;;;;;21.97;13.13;;;2.70;73.50;;;;;;5050790;28;20039;-53
2022/03/10 00:57:48;;;;;;;19.20;12.13;;;2.70;73.20;;;;;;5039285;28;20072;-51
2022/03/10 01:00:15;;;;;;;20.95;14.18;;;2.70;73.80;;;;;;5032295;28;20088;-53
2022/03/10 01:02:41;;;;;;;;;;;2.60;74.10;;;;;;5036878;28;20533;-53
2022/03/10 01:05:07;;;;;;;19.70;12.57;;;2.60;74.50;;;;;;5034361;28;19917;-50
2022/03/10 01:07:33;;;;;;;18.52;13.20;;;2.50;74.50;;;;;;5048801;28;20076;-54
2022/03/10 01:09:58;;;;;;;22.97;13.83;;;2.40;74.90;;;;;;5051212;28;20064;-51
2022/03/10 01:12:24;;;;;;;21.88;13.88;;;2.30;75.10;;;;;;5049522;28;20045;-53
2022/03/10 01:14:50;;;;;;;18.95;12.18;;;2.20;74.40;;;;;;5049146;28;20095;-54
2022/03/10 01:17:16;;;;;;;22.17;13.07;;;2.30;74.30;;;;;;5045037;28;20033;-53
2022/03/10 01:19:41;;;;;;;20.07;12.50;;;2.30;74.00;;;;;;5045165;28;20336;-54
2022/03/10 01:22:07;;;;;;;20.40;13.70;;;2.40;74.50;;;;;;5048113;28;20045;-52
2022/03/10 01:24:34;;;;;;;22.80;14.27;;;2.30;74.50;;;;;;5047722;28;20072;-51
2022/03/10 01:26:59;;;;;;;18.77;13.02;;;2.00;74.30;;;;;;5034244;28;20073;-50
2022/03/10 01:29:25;;;;;;;23.47;14.30;;;1.80;74.90;;;;;;5051281;28;20065;-49
2022/03/10 01:31:51;;;;;;;21.57;12.13;;;1.80;75.70;;;;;;5050564;28;20130;-54
2022/03/10 01:34:16;;;;;;;23.30;15.03;;;1.80;75.70;;;;;;5031848;28;20029;-52
2022/03/10 01:36:42;;;;;;;18.30;13.13;;;1.80;75.80;;;;;;5032390;28;20108;-53
2022/03/10 01:39:08;;;;;;;20.13;13.47;;;1.90;75.80;;;;;;5049208;28;20033;-50
2022/03/10 01:41:35;;;;;;;21.52;13.82;;;1.90;75.50;;;;;;5051121;28;20120;-49
2022/03/10 01:44:08;;;;;;;20.77;14.02;;;2.00;75.30;;;;;;5048053;28;20115;-54
2022/03/10 01:46:35;;;;;;;19.98;13.13;;;2.00;75.40;;;;;;5049196;28;20061;-50
2022/03/10 01:49:02;;;;;;;20.52;13.65;;;2.00;75.40;;;;;;5035644;28;20119;-51
2022/03/10 01:51:29;;;;;;;22.45;14.23;;;2.00;75.60;;;;;;5031471;28;20038;-54
2022/03/10 01:53:54;;;;;;;23.58;14.18;;;2.00;75.40;;;;;;5043046;28;20033;-51
2022/03/10 01:56:22;;;;;;;23.87;14.13;;;2.00;75.30;;;;;;5032565;28;20037;-53
2022/03/10 01:58:50;;;;;;;21.00;13.73;;;2.00;75.90;;;;;;5043554;28;20682;-53
2022/03/10 02:01:16;;;;;;;22.67;15.60;;;2.00;75.40;;;;;;5031836;28;20116;-53
2022/03/10 02:03:43;;;;;;;26.50;13.18;;;2.10;75.50;;;;;;5036330;28;20072;-50
2022/03/10 02:06:09;;;;;;;19.88;13.93;;;2.00;76.10;;;;;;5048832;28;20032;-52
2022/03/10 02:11:21;;;;;;;21.88;13.18;;;1.70;77.50;;;;;;5029847;28;20264;-54
2022/03/10 02:13:47;;;;;;;21.08;14.73;;;1.50;77.20;;;;;;5033971;28;20526;-52
2022/03/10 02:18:59;;;;;;;23.05;13.55;;;1.30;79.10;;;;;;5038491;28;20175;-52
2022/03/10 02:21:25;;;;;;;20.90;14.63;;;1.10;79.70;;;;;;5050868;28;20068;-52
2022/03/10 02:23:50;;;;;;;23.10;14.43;;;1.00;80.20;;;;;;5041020;28;20146;-52
2022/03/10 02:26:16;;;;;;;22.67;15.07;;;1.00;80.40;;;;;;5036221;28;20041;-53
2022/03/10 02:28:42;;;;;;;24.83;15.20;;;1.00;80.90;;;;;;5037368;28;20048;-53
2022/03/10 02:31:08;;;;;;;23.17;15.75;;;1.00;81.60;;;;;;5050223;28;20025;-52
2022/03/10 02:33:34;;;;;;;26.58;13.85;;;1.00;82.00;;;;;;5047002;28;20033;-52
2022/03/10 02:36:00;;;;;;;21.67;14.93;;;1.00;82.00;;;;;;5050096;28;20040;-53
2022/03/10 02:38:26;;;;;;;21.50;14.60;;;1.00;82.20;;;;;;5035764;28;20322;-52
2022/03/10 02:40:51;;;;;;;20.27;14.17;;;1.00;82.40;;;;;;5047232;28;20060;-51
2022/03/10 02:43:18;;;;;;;27.73;15.33;;;1.00;82.50;;;;;;5046613;28;20414;-53
2022/03/10 02:45:45;;;;;;;21.73;14.05;;;1.10;82.10;;;;;;5030176;28;20044;-52
2022/03/10 02:48:14;;;;;;;18.98;14.55;;;1.10;82.10;;;;;;5042440;28;20036;-52
2022/03/10 02:50:40;;;;;;;20.27;12.05;;;1.10;81.50;;;;;;5031617;28;20033;-52
2022/03/10 02:53:06;;;;;;;20.63;14.48;;;1.20;81.10;;;;;;5030483;28;20068;-52
2022/03/10 02:55:32;;;;;;;20.60;13.93;;;1.30;80.60;;;;;;5042344;28;20044;-51
2022/03/10 02:57:57;;;;;;;18.67;12.97;;;1.40;80.10;;;;;;5037616;28;20037;-53
2022/03/10 03:00:23;;;;;;;20.83;12.60;;;1.40;80.20;;;;;;5032478;28;20090;-51
2022/03/10 03:02:49;;;;;;;18.53;12.73;;;1.40;79.70;;;;;;5029449;28;20056;-53
2022/03/10 03:05:16;;;;;;;22.73;13.18;;;1.50;79.40;;;;;;5046431;28;20413;-53
2022/03/10 03:07:43;;;;;;;23.13;13.63;;;1.50;78.90;;;;;;5046149;28;20417;-53
2022/03/10 03:10:09;;;;;;;21.25;12.60;;;1.60;79.10;;;;;;5044928;28;20068;-53
2022/03/10 03:12:43;;;;;;;18.83;13.27;;;1.60;78.50;;;;;;5047104;28;20460;-53
2022/03/10 03:15:09;;;;;;;20.25;12.48;;;1.60;78.10;;;;;;5034281;28;20116;-53
2022/03/10 03:17:35;;;;;;;23.73;12.50;;;1.60;78.10;;;;;;5032854;28;20121;-53
2022/03/10 03:20:00;;;;;;;24.13;12.60;;;1.70;77.70;;;;;;5036456;28;20034;-53
2022/03/10 03:22:26;;;;;;;25.80;14.13;;;1.70;77.50;;;;;;5030122;28;20087;-53
2022/03/10 03:24:51;;;;;;;19.80;11.17;;;1.70;77.10;;;;;;5039990;28;20047;-53
2022/03/10 03:27:17;;;;;;;18.30;12.73;;;1.70;77.10;;;;;;5035696;28;20216;-52
2022/03/10 03:29:42;;;;;;;15.57;11.17;;;1.70;76.90;;;;;;5030083;28;20132;-53
2022/03/10 03:32:08;;;;;;;19.50;11.43;;;1.70;76.50;;;;;;5031187;28;20418;-52
2022/03/10 03:34:34;;;;;;;16.13;10.40;;;1.80;76.60;;;;;;5038651;28;20083;-52
2022/03/10 03:36:59;;;;;;;20.63;11.27;;;1.80;76.50;;;;;;5049710;28;20036;-52
2022/03/10 03:39:25;;;;;;;18.73;10.50;;;1.80;76.40;;;;;;5041097;28;20445;-51
2022/03/10 03:41:50;;;;;;;19.43;11.30;;;1.90;76.50;;;;;;5030986;28;20037;-53
2022/03/10 03:44:16;;;;;;;18.67;12.13;;;1.90;76.70;;;;;;5031831;28;20568;-49
2022/03/10 03:46:42;;;;;;;17.03;11.13;;;1.80;76.80;;;;;;5049451;28;20048;-53
2022/03/10 03:49:08;;;;;;;20.90;12.27;;;1.80;76.90;;;;;;5045479;28;20037;-50
2022/03/10 03:51:34;;;;;;;18.13;12.07;;;1.80;77.50;;;;;;5048053;28;20510;-47
2022/03/10 03:53:59;;;;;;;16.30;11.13;;;1.70;77.00;;;;;;5048810;28;20151;-47
2022/03/10 03:56:25;;;;;;;21.47;11.90;;;1.70;77.10;;;;;;5031541;28;20029;-48
2022/03/10 03:58:51;;;;;;;17.30;10.90;;;1.60;77.00;;;;;;5048902;28;20119;-52
2022/03/10 04:01:16;;;;;;;18.00;12.37;;;1.60;77.00;;;;;;5033567;28;20486;-52
2022/03/10 04:03:42;;;;;;;15.80;11.33;;;1.60;77.10;;;;;;5029623;28;20107;-50
2022/03/10 04:06:08;;;;;;;19.00;11.15;;;1.60;77.00;;;;;;5029158;28;20045;-47
2022/03/10 04:08:34;;;;;;;30.70;12.10;;;1.60;77.00;;;;;;5040473;28;20029;-46
2022/03/10 04:10:59;;;;;;;17.33;11.30;;;1.60;76.90;;;;;;5043363;28;20041;-51
2022/03/10 04:13:25;;;;;;;18.37;11.50;;;1.60;76.80;;;;;;5033980;28;20046;-48
2022/03/10 04:15:51;;;;;;;20.47;11.67;;;1.60;76.90;;;;;;5033111;28;20049;-50
2022/03/10 04:18:17;;;;;;;16.65;11.30;;;1.60;76.80;;;;;;5051431;28;20037;-47
2022/03/10 04:20:44;;;;;;;18.95;11.30;;;1.60;76.80;;;;;;5039544;28;20136;-49
2022/03/10 04:23:11;;;;;;;17.05;11.63;;;1.60;76.90;;;;;;5036230;28;20120;-48
2022/03/10 04:25:36;;;;;;;16.50;11.27;;;1.60;76.90;;;;;;5033254;28;20053;-51
2022/03/10 04:28:02;;;;;;;17.43;11.93;;;1.60;77.00;;;;;;5033179;28;20570;-51
2022/03/10 04:30:27;;;;;;;15.43;11.10;;;1.60;77.00;;;;;;5033385;28;20525;-52
2022/03/10 04:32:53;;;;;;;18.23;12.20;;;1.60;77.20;;;;;;5034413;28;20513;-49
2022/03/10 04:35:19;;;;;;;18.87;11.40;;;1.60;77.00;;;;;;5038606;28;20099;-48
2022/03/10 04:37:48;;;;;;;;;;;1.60;76.70;;;;;;5052508;28;20448;-51
2022/03/10 04:40:14;;;;;;;16.27;11.20;;;1.60;76.70;;;;;;5047355;28;19959;-47
2022/03/10 04:42:40;;;;;;;15.65;10.73;;;1.60;76.50;;;;;;5032798;28;20073;-49
2022/03/10 04:45:07;;;;;;;20.80;11.35;;;1.60;76.50;;;;;;5033750;28;20479;-48
2022/03/10 04:47:33;;;;;;;20.08;11.75;;;1.70;76.60;;;;;;5049503;28;20151;-47
2022/03/10 04:49:59;;;;;;;16.52;10.85;;;1.70;76.80;;;;;;5052544;28;20055;-51
2022/03/10 04:52:26;;;;;;;15.70;10.73;;;1.60;76.60;;;;;;5047225;28;20040;-47
2022/03/10 04:54:51;;;;;;;18.88;13.55;;;1.70;76.70;;;;;;5051836;28;20354;-49
2022/03/10 04:57:18;;;;;;;22.43;11.47;;;1.60;76.60;;;;;;5047633;28;20124;-49
2022/03/10 04:59:43;;;;;;;15.60;11.20;;;1.60;76.60;;;;;;5035456;28;20461;-46
2022/03/10 05:02:09;;;;;;;21.80;12.10;;;1.60;76.60;;;;;;5043738;28;20057;-49
2022/03/10 05:04:34;;;;;;;20.20;12.43;;;1.60;76.70;;;;;;5051790;28;20041;-48
2022/03/10 05:07:00;;;;;;;15.20;11.33;;;1.60;76.80;;;;;;5038595;28;20108;-47
2022/03/10 05:09:25;;;;;;;16.47;11.37;;;1.60;76.80;;;;;;5032377;28;20494;-47
2022/03/10 05:11:51;;;;;;;17.53;11.47;;;1.60;76.80;;;;;;5044016;28;20120;-48
2022/03/10 05:14:16;;;;;;;20.67;12.73;;;1.60;76.80;;;;;;5035154;28;20038;-47
2022/03/10 05:16:42;;;;;;;18.77;11.97;;;1.60;77.00;;;;;;5041740;28;20094;-46
2022/03/10 05:19:07;;;;;;;20.43;11.57;;;1.60;77.20;;;;;;5046910;28;20045;-53
2022/03/10 05:21:34;;;;;;;21.03;12.73;;;1.50;77.30;;;;;;5043568;28;20032;-50
2022/03/10 05:23:59;;;;;;;;;;;1.50;77.10;;;;;;5043264;28;20214;-47
2022/03/10 05:26:25;;;;;;;18.33;12.25;;;1.50;77.20;;;;;;5043584;28;19924;-47
2022/03/10 05:28:51;;;;;;;20.27;12.60;;;1.50;77.10;;;;;;5042666;28;20048;-52
2022/03/10 05:31:16;;;;;;;24.97;12.03;;;1.50;77.20;;;;;;5036023;28;20036;-51
2022/03/10 05:33:42;;;;;;;21.87;12.37;;;1.50;77.00;;;;;;5046960;28;20072;-47
2022/03/10 05:36:07;;;;;;;18.63;12.10;;;1.60;76.90;;;;;;5047383;28;20120;-47
2022/03/10 05:38:33;;;;;;;22.43;12.83;;;1.60;76.90;;;;;;5032780;28;20037;-48
2022/03/10 05:41:00;;;;;;;17.93;12.63;;;1.70;76.90;;;;;;5033806;28;20461;-51
2022/03/10 05:43:25;;;;;;;21.80;12.60;;;1.60;77.10;;;;;;5036817;28;20124;-52
2022/03/10 05:45:51;;;;;;;19.48;12.60;;;1.60;77.10;;;;;;5030813;28;20117;-51
2022/03/10 05:48:17;;;;;;;17.13;12.53;;;1.50;77.40;;;;;;5031702;28;20045;-51
2022/03/10 05:50:42;;;;;;;21.17;13.80;;;1.50;77.80;;;;;;5037075;28;20044;-52
2022/03/10 05:53:08;;;;;;;16.03;11.73;;;1.50;77.90;;;;;;5045045;28;20437;-50
2022/03/10 05:55:34;;;;;;;17.83;12.07;;;1.50;77.70;;;;;;5044075;28;20290;-47
2022/03/10 05:57:59;;;;;;;18.80;11.87;;;1.50;77.50;;;;;;5031947;28;20135;-48
2022/03/10 06:00:25;;;;;;;19.10;12.67;;;1.50;77.40;;;;;;5062116;28;20656;-51
2022/03/10 06:02:51;;;;;;;20.80;12.03;;;1.60;77.40;;;;;;5032281;28;20038;-52
2022/03/10 06:05:17;;;;;;;19.60;13.47;;;1.60;77.50;;;;;;5031194;28;20057;-51
2022/03/10 06:07:43;;;;;;;18.90;12.80;;;1.50;78.80;;;;;;5033530;28;20095;-47
2022/03/10 06:10:09;;;;;;;17.93;12.33;;;1.50;79.40;;;;;;5031932;28;20034;-51
2022/03/10 06:12:35;;;;;;;17.77;12.52;;;1.40;79.80;;;;;;5030709;28;20052;-51
2022/03/10 06:15:03;;;;;;;16.53;12.70;;;1.30;80.30;;;;;;5043305;28;20556;-50
2022/03/10 06:17:31;;;;;;;20.58;13.35;;;1.30;81.10;;;;;;5036003;28;20490;-51
2022/03/10 06:19:58;;;;;;;22.50;12.88;;;1.30;81.00;;;;;;5046503;28;20418;-48
2022/03/10 06:22:27;;;;;;;19.80;13.05;;;1.50;80.50;;;;;;5032436;28;20069;-51
2022/03/10 06:24:53;;;;;;;17.45;12.85;;;1.60;80.30;;;;;;5031729;28;20049;-50
2022/03/10 06:27:19;;;;;;;25.10;13.03;;;1.90;79.80;;;;;;5039506;28;20036;-54
2022/03/10 06:29:45;;;;;;;;;;;2.00;79.30;;;;;;5048147;28;20040;-50
2022/03/10 06:32:12;;;;;;;19.98;12.68;;;2.30;78.70;;;;;;5044041;28;19921;-50
2022/03/10 06:34:38;;;;;;;24.52;20.33;;;2.50;77.90;;;;;;5030815;28;20116;-55
2022/03/10 06:37:05;;;;;;;24.80;21.58;;;2.70;77.10;;;;;;5032249;28;20036;-52
2022/03/10 06:39:31;;;;;;;25.42;18.30;;;2.90;76.70;;;;;;5030713;28;20037;-54
2022/03/10 06:41:57;;;;;;;19.33;17.15;;;3.20;76.40;;;;;;5033810;28;20387;-53
2022/03/10 06:44:23;;;;;;;24.10;19.20;;;3.40;76.20;;;;;;5032780;28;20131;-47
2022/03/10 06:46:49;;;;;;;20.02;15.65;;;3.60;76.00;;;;;;5035676;28;20060;-48
2022/03/10 06:49:14;;;;;;;19.80;15.67;;;3.90;75.70;;;;;;5047811;28;20033;-49
2022/03/10 06:51:40;;;;;;;19.80;13.70;;;4.10;75.50;;;;;;5035165;28;20042;-51
2022/03/10 06:54:05;;;;;;;21.33;13.50;;;4.40;75.30;;;;;;5031554;28;20378;-52
2022/03/10 06:56:31;;;;;;;17.83;12.83;;;4.70;74.90;;;;;;5043593;28;20512;-47
2022/03/10 06:58:57;;;;;;;23.23;14.37;;;5.00;75.00;;;;;;5039169;28;20099;-47
2022/03/10 07:01:22;;;;;;;22.70;13.27;;;5.40;74.00;;;;;;5044671;28;20283;-47
2022/03/10 07:03:48;;;;;;;19.57;11.90;;;5.80;73.40;;;;;;5050073;28;20375;-47
2022/03/10 07:06:13;;;;;;;16.37;11.83;;;6.10;72.90;;;;;;5035894;28;20041;-49
2022/03/10 07:08:39;;;;;;;18.27;12.40;;;6.50;72.10;;;;;;5030226;28;20037;-49
2022/03/10 07:11:05;;;;;;;18.83;13.10;;;6.80;70.80;;;;;;5042064;28;20040;-48
2022/03/10 07:13:34;;;;;;;17.75;12.13;;;7.00;70.10;;;;;;5049844;28;20049;-48
2022/03/10 07:15:59;;;;;;;20.02;12.65;;;6.90;69.60;;;;;;5047794;28;20567;-51
2022/03/10 07:18:25;;;;;;;18.90;14.03;;;6.80;69.50;;;;;;5049943;28;20116;-50
2022/03/10 07:20:50;;;;;;;18.47;13.93;;;6.70;70.00;;;;;;5032498;28;20038;-51
2022/03/10 07:23:16;;;;;;;18.87;14.37;;;6.50;70.20;;;;;;5043135;28;20129;-50
2022/03/10 07:25:43;;;;;;;19.23;13.07;;;6.40;70.30;;;;;;5045069;28;20547;-49
2022/03/10 07:28:09;;;;;;;18.85;14.13;;;6.20;71.50;;;;;;5030202;28;20077;-49
2022/03/10 07:30:34;;;;;;;17.55;12.43;;;6.10;72.20;;;;;;5030715;28;20041;-48
2022/03/10 07:33:00;;;;;;;20.30;13.80;;;6.00;73.00;;;;;;5048215;28;20463;-49
2022/03/10 07:35:25;;;;;;;20.40;13.23;;;5.90;73.30;;;;;;5036348;28;20500;-47
2022/03/10 07:37:53;;;;;;;20.43;13.43;;;5.80;73.80;;;;;;5039889;28;20045;-48
2022/03/10 07:40:20;;;;;;;21.35;13.65;;;5.70;74.30;;;;;;5029862;28;20041;-48
2022/03/10 07:42:46;;;;;;;21.58;14.98;;;5.60;74.80;;;;;;5040653;28;20120;-53
2022/03/10 07:45:12;;;;;;;22.60;13.27;;;5.60;75.00;;;;;;5043285;28;20037;-49
2022/03/10 07:47:37;;;;;;;19.67;14.37;;;5.50;75.30;;;;;;5039171;28;20040;-48
2022/03/10 07:50:05;;;;;;;24.55;15.18;;;5.60;76.10;;;;;;5052464;28;20041;-49
2022/03/10 07:52:30;;;;;;;19.73;14.00;;;5.50;76.10;;;;;;5051544;28;20045;-48
2022/03/10 07:54:56;;;;;;;21.37;14.40;;;5.50;76.70;;;;;;5044187;28;20041;-48
2022/03/10 07:57:21;;;;;;;21.90;12.97;;;5.50;76.40;;;;;;5042783;28;20048;-47
2022/03/10 07:59:47;;;;;;;26.57;15.87;;;5.50;75.50;;;;;;5049781;28;20043;-49
2022/03/10 08:02:13;;;;;;;25.58;15.48;;;5.50;76.20;;;;;;5053625;28;20123;-53
2022/03/10 08:04:39;;;;;;;19.83;14.73;;;5.50;76.50;;;;;;5046909;28;20073;-48
2022/03/10 08:07:05;;;;;;;20.48;14.38;;;5.60;76.90;;;;;;5050040;28;20037;-49
2022/03/10 08:09:31;;;;;;;19.50;14.00;;;5.60;76.70;;;;;;5036621;28;20533;-50
2022/03/10 08:11:56;;;;;;;23.10;15.80;;;5.50;74.20;;;;;;5034436;28;20076;-49
2022/03/10 08:14:23;;;;;;;21.30;13.97;;;5.60;75.10;;;;;;5048310;28;20044;-49
2022/03/10 08:16:48;;;;;;;18.48;14.63;;;5.50;73.90;;;;;;5051433;28;20067;-48
2022/03/10 08:19:14;;;;;;;21.70;14.13;;;5.60;74.80;;;;;;5050756;28;20041;-49
2022/03/10 08:21:39;;;;;;;17.90;12.17;;;5.70;76.50;;;;;;5038896;28;20178;-50
2022/03/10 08:24:05;;;;;;;23.20;12.77;;;5.80;76.30;;;;;;5036920;28;20045;-49
2022/03/10 08:26:31;;;;;;;19.25;13.77;;;5.90;76.30;;;;;;5032404;28;20037;-54
2022/03/10 08:28:57;;;;;;;19.10;13.10;;;6.10;76.60;;;;;;5034417;28;20091;-51
2022/03/10 08:31:23;;;;;;;20.33;13.85;;;6.30;76.30;;;;;;5031650;28;20112;-48
2022/03/10 08:33:50;;;;;;;20.35;13.80;;;6.30;74.70;;;;;;5032790;28;20557;-48
2022/03/10 08:36:16;;;;;;;23.63;15.68;;;6.40;75.80;;;;;;5033709;28;20052;-48
2022/03/10 08:38:42;;;;;;;18.67;13.80;;;6.40;77.20;;;;;;5038448;28;20124;-50
2022/03/10 08:41:08;;;;;;;18.87;14.20;;;6.60;76.30;;;;;;5052991;28;20051;-49
2022/03/10 08:43:34;;;;;;;18.08;13.80;;;6.70;75.30;;;;;;5039774;28;20436;-51
2022/03/10 08:46:02;;;;;;;22.23;13.73;;;6.80;74.70;;;;;;5033525;28;20041;-51
2022/03/10 08:48:28;;;;;;;21.90;13.82;;;6.90;75.70;;;;;;5033633;28;20040;-49
2022/03/10 08:50:54;;;;;;;20.77;14.70;;;7.00;76.50;;;;;;5051896;28;20404;-48
2022/03/10 08:53:20;;;;;;;17.70;13.05;;;7.20;75.20;;;;;;5050676;28;20051;-48
2022/03/10 08:55:45;;;;;;;18.20;13.60;;;7.30;74.20;;;;;;5031941;28;20567;-52
2022/03/10 08:58:11;;;;;;;17.77;12.93;;;7.40;73.70;;;;;;5033608;28;20064;-49
2022/03/10 09:00:37;;;;;;;18.87;13.37;;;7.60;74.70;;;;;;5032575;28;20049;-49
2022/03/10 09:03:03;;;;;;;14.40;12.05;;;7.70;73.90;;;;;;5048954;28;20051;-48
2022/03/10 09:05:28;;;;;;;21.53;13.90;;;7.80;73.20;;;;;;5052277;28;20033;-49
2022/03/10 09:07:54;;;;;;;21.37;12.37;;;8.00;72.80;;;;;;5035151;28;20495;-50
2022/03/10 09:10:19;;;;;;;20.13;12.97;;;8.10;71.20;;;;;;5043744;28;20044;-53
2022/03/10 09:12:45;;;;;;;589.30;66.75;;;8.20;70.50;;;;;;5052057;28;20120;-49
2022/03/10 09:15:11;;;;;;;19.83;12.18;;;8.30;70.30;;;;;;5041454;28;20045;-49
2022/03/10 09:17:37;;;;;;;22.20;11.97;;;8.40;69.70;;;;;;5032909;28;20120;-48
2022/03/10 09:20:07;;;;;;;18.98;12.07;;;8.50;68.90;;;;;;5031913;28;20049;-48
2022/03/10 09:22:33;;;;;;;17.08;11.63;;;8.60;68.50;;;;;;5051638;28;20055;-48
2022/03/10 09:25:00;;;;;;;18.93;12.80;;;8.60;66.90;;;;;;5051689;28;20033;-51
2022/03/10 09:27:25;;;;;;;17.80;11.73;;;8.70;70.20;;;;;;5050157;28;20095;-50
2022/03/10 09:29:51;;;;;;;24.70;12.43;;;8.90;69.80;;;;;;5051808;28;20037;-50
2022/03/10 09:32:17;;;;;;;19.93;10.97;;;9.00;68.80;;;;;;5035043;28;20136;-47
2022/03/10 09:34:43;;;;;;;37.88;12.60;;;9.10;69.00;;;;;;5031785;28;20117;-48
2022/03/10 09:37:09;;;;;;;18.33;11.97;;;9.30;67.80;;;;;;5039411;28;20083;-49
2022/03/10 09:39:34;;;;;;;19.73;12.70;;;9.30;66.30;;;;;;5039141;28;20116;-48
2022/03/10 09:42:04;;;;;;;16.17;11.87;;;9.50;68.10;;;;;;5042669;28;20138;-50
2022/03/10 09:44:32;;;;;;;17.80;11.82;;;9.50;66.80;;;;;;5050666;28;20048;-53
2022/03/10 09:47:03;;;;;;;16.80;12.63;;;9.60;66.50;;;;;;5043291;28;20041;-49
2022/03/10 09:49:33;;;;;;;17.13;12.32;;;9.70;66.20;;;;;;5032891;28;20033;-54
2022/03/10 09:51:59;;;;;;;17.40;11.50;;;9.90;67.80;;;;;;5051296;28;20112;-52
2022/03/10 09:54:25;;;;;;;20.92;11.65;;;10.00;65.20;;;;;;5033804;28;20133;-48
2022/03/10 09:56:51;;;;;;;13.77;11.10;;;10.10;67.10;;;;;;5032517;28;20040;-53
2022/03/10 09:59:20;;;;;;;17.67;11.32;;;10.30;66.60;;;;;;5030967;28;20111;-50
2022/03/10 10:01:46;;;;;;;18.83;11.73;;;10.40;66.30;;;;;;5041277;28;21364;-52
2022/03/10 10:04:11;;;;;;;15.67;10.57;;;10.60;66.50;;;;;;5033986;28;20041;-52
2022/03/10 10:07:10;;;;;;;17.97;12.00;;;10.70;65.50;;;;;;5030946;28;20038;-48
2022/03/10 10:09:42;;;;;;;17.80;11.50;;;10.80;64.00;;;;;;5050615;28;20037;-51
2022/03/10 10:12:09;;;;;;;14.65;12.60;;;10.90;65.50;;;;;;5035561;28;20103;-49
2022/03/10 10:14:34;;;;;;;;;;;11.10;65.40;;;;;;5031814;28;20033;-49
2022/03/10 10:17:00;;;;;;;18.65;12.73;;;11.10;63.60;;;;;;5044644;28;20405;-47
2022/03/10 10:19:27;;;;;;;22.93;11.27;;;11.20;64.50;;;;;;5049203;28;20037;-46
2022/03/10 10:22:12;;;;;;;17.88;11.65;;;11.20;63.40;;;;;;5032417;28;20045;-47
2022/03/10 10:24:38;;;;;;;14.95;10.57;;;11.30;61.90;;;;;;5041997;28;20099;-48
2022/03/10 10:27:33;;;;;;;16.85;11.38;;;11.40;62.50;;;;;;5050871;28;20044;-48
2022/03/10 10:30:02;;;;;;;19.20;12.27;;;11.50;60.40;;;;;;4972601;28;20416;-48
2022/03/10 10:32:31;;;;;;;15.25;10.77;;;11.60;60.40;;;;;;4978534;28;20034;-47
2022/03/10 10:35:12;;;;;;;15.00;11.07;;;11.70;59.70;;;;;;4988047;28;20053;-48
2022/03/10 10:37:40;;;;;;;21.88;11.27;;;11.80;60.20;;;;;;4977946;28;20043;-48
2022/03/10 10:40:07;;;;;;;16.75;10.90;;;11.90;60.10;;;;;;4972439;28;20478;-47
2022/03/10 10:42:35;;;;;;;16.35;11.70;;;12.00;59.40;;;;;;4987412;28;20593;-50
2022/03/10 10:45:22;;;;;;;16.83;12.50;;;12.10;58.20;;;;;;4970444;28;20053;-49
2022/03/10 10:48:08;;;;;;;19.80;13.20;;;12.10;55.90;;;;;;4977718;28;20120;-48
2022/03/10 10:50:37;;;;;;;18.03;12.20;;;12.20;54.40;;;;;;4986635;28;20081;-50
2022/03/10 10:53:04;;;;;;;16.90;12.95;;;12.20;54.80;;;;;;4985837;28;20597;-48
2022/03/10 10:55:32;;;;;;;18.65;12.68;;;12.30;53.40;;;;;;4971138;28;20062;-48
2022/03/10 10:58:15;;;;;;;21.90;12.95;;;12.40;55.50;;;;;;4987975;28;20050;-48
2022/03/10 11:00:44;;;;;;;20.35;12.45;;;12.50;55.30;;;;;;4972027;28;20054;-48
2022/03/10 11:03:26;;;;;;;17.23;12.60;;;12.50;53.60;;;;;;4973121;28;20047;-50
2022/03/10 11:05:53;;;;;;;20.70;12.82;;;12.60;51.40;;;;;;4992337;28;20077;-48
2022/03/10 11:08:20;;;;;;;16.40;12.45;;;12.60;52.00;;;;;;5036479;28;20037;-49
2022/03/10 11:10:47;;;;;;;18.67;12.98;;;12.70;53.60;;;;;;5048659;28;20495;-48
2022/03/10 11:13:13;;;;;;;15.80;12.38;;;12.80;54.30;;;;;;5041337;28;20041;-48
2022/03/10 11:15:40;;;;;;;17.40;12.80;;;12.90;55.30;;;;;;5029650;28;20048;-49
2022/03/10 11:18:09;;;;;;;16.83;12.80;;;13.00;54.10;;;;;;5030361;28;20573;-49
2022/03/10 11:20:36;;;;;;;19.30;13.10;;;13.00;51.70;;;;;;5041695;28;20520;-51
2022/03/10 11:23:19;;;;;;;17.02;13.20;;;13.10;51.40;;;;;;5044301;28;20038;-49
2022/03/10 11:25:54;;;;;;;18.67;11.95;;;13.10;51.60;;;;;;5030019;28;20048;-49
2022/03/10 11:28:24;;;;;;;24.30;13.88;;;13.20;52.50;;;;;;5035205;28;20028;-51
2022/03/10 11:30:57;;;;;;;20.40;13.38;;;13.30;54.00;;;;;;5036289;28;20042;-49
2022/03/10 11:33:30;;;;;;;17.95;12.90;;;13.50;52.60;;;;;;5035075;28;20048;-49
2022/03/10 11:35:55;;;;;;;16.20;12.82;;;13.50;51.90;;;;;;5049190;28;20444;-49
2022/03/10 11:38:49;;;;;;;18.10;14.47;;;13.50;48.50;;;;;;5037812;28;20045;-50
2022/03/10 11:41:15;;;;;;;22.35;13.52;;;13.60;52.00;;;;;;5029720;28;20703;-49
2022/03/10 11:43:53;;;;;;;19.08;13.93;;;13.70;51.90;;;;;;5030725;28;20244;-49
2022/03/10 11:46:21;;;;;;;18.73;13.73;;;13.70;50.20;;;;;;5041871;28;20068;-49
2022/03/10 11:49:11;;;;;;;20.90;14.05;;;13.80;51.00;;;;;;5030656;28;20495;-49
2022/03/10 11:51:44;;;;;;;20.80;14.15;;;13.90;51.20;;;;;;5038587;28;20453;-49
2022/03/10 11:54:10;;;;;;;24.20;15.82;;;13.90;51.50;;;;;;5044208;28;20072;-49
2022/03/10 11:56:45;;;;;;;21.00;14.02;;;13.90;51.40;;;;;;5039898;28;20049;-49
2022/03/10 11:59:23;;;;;;;20.05;13.27;;;14.00;50.20;;;;;;5039849;28;20045;-48
2022/03/10 12:01:49;;;;;;;19.15;14.13;;;13.90;49.50;;;;;;5038085;28;20038;-49
2022/03/10 12:04:17;;;;;;;21.90;13.73;;;14.00;49.50;;;;;;5037771;28;20045;-50
2022/03/10 12:06:58;;;;;;;20.58;13.90;;;14.10;50.40;;;;;;5038485;28;20124;-49
2022/03/10 12:09:30;;;;;;;28.75;14.63;;;14.20;50.20;;;;;;5039281;28;20037;-50
2022/03/10 12:12:14;;;;;;;21.60;16.38;;;14.20;49.10;;;;;;5039272;28;20436;-50
2022/03/10 12:14:40;;;;;;;22.25;14.82;;;14.30;49.50;;;;;;5037829;28;20045;-48
2022/03/10 12:17:54;;;;;;;20.85;14.63;;;14.30;49.30;;;;;;5040099;28;20498;-49
2022/03/10 12:20:38;;;;;;;24.38;14.70;;;14.40;50.10;;;;;;5036581;28;20502;-50
2022/03/10 12:23:03;;;;;;;21.25;15.90;;;14.40;49.00;;;;;;5038386;28;20113;-51
2022/03/10 12:25:35;;;;;;;25.03;16.43;;;14.50;50.00;;;;;;5038160;28;20427;-50
2022/03/10 12:28:01;;;;;;;20.15;13.98;;;14.60;50.60;;;;;;5037686;28;20112;-50
2022/03/10 12:30:28;;;;;;;22.27;15.40;;;14.70;49.60;;;;;;5038381;28;20160;-49
2022/03/10 12:32:56;;;;;;;26.08;15.35;;;14.70;49.40;;;;;;5049214;28;20044;-49
2022/03/10 12:35:36;;;;;;;22.33;15.68;;;14.70;48.60;;;;;;5039045;28;20037;-49
2022/03/10 12:38:02;;;;;;;21.75;16.15;;;14.70;49.60;;;;;;5052845;28;20052;-49
2022/03/10 12:40:30;;;;;;;23.48;16.08;;;14.80;50.00;;;;;;5045307;28;20099;-48
2022/03/10 12:43:00;;;;;;;21.52;15.07;;;14.80;49.50;;;;;;5041321;28;20513;-49